Time;durP1;ratioP1;P1;durP2;ratioP2;P2;SDS_P1;SDS_P2;PMS_P1;PMS_P2;Temp;Humidity;BMP_temperature;BMP_pressure;BME280_temperature;BME280_humidity;BME280_pressure;Samples;Min_cycle;Max_cycle;Signal;HPM_P1;HPM_P2
2022/01/23 00:01:14;;;;;;;57.03;29.27;;;5.50;99.90;;;;;;5041852;28;20178;-66
2022/01/23 00:03:45;;;;;;;43.40;26.20;;;5.50;99.90;;;;;;5051605;28;20185;-64
2022/01/23 00:06:11;;;;;;;48.93;30.10;;;5.50;99.90;;;;;;5042832;28;20176;-65
2022/01/23 00:08:36;;;;;;;46.37;26.57;;;5.50;99.90;;;;;;5031883;28;20524;-65
2022/01/23 00:11:02;;;;;;;48.93;29.27;;;5.50;99.90;;;;;;5038583;28;20613;-66
2022/01/23 00:18:55;;;;;;;55.70;30.20;;;5.50;99.90;;;;;;5031872;28;20601;-66
2022/01/23 00:21:21;;;;;;;59.73;28.23;;;5.50;99.90;;;;;;5039957;28;20249;-65
2022/01/23 00:31:41;;;;;;;53.87;28.43;;;5.50;99.90;;;;;;5033841;28;20189;-65
2022/01/23 00:34:07;;;;;;;57.67;31.13;;;5.50;99.90;;;;;;5052644;28;20209;-66
2022/01/23 00:36:35;;;;;;;55.07;27.63;;;5.50;99.90;;;;;;5063567;28;20187;-65
2022/01/23 00:39:00;;;;;;;48.07;29.13;;;5.50;99.90;;;;;;5052262;28;20203;-65
2022/01/23 00:41:26;;;;;;;57.07;28.80;;;5.50;99.90;;;;;;5045224;28;20187;-65
2022/01/23 00:43:53;;;;;;;58.17;30.23;;;5.50;99.90;;;;;;5056873;28;20179;-65
2022/01/23 00:51:17;;;;;;;53.80;29.10;;;5.60;99.90;;;;;;5031548;28;20171;-65
2022/01/23 00:53:43;;;;;;;50.27;30.43;;;5.50;99.90;;;;;;5050965;28;20210;-65
2022/01/23 00:56:09;;;;;;;47.13;28.00;;;5.50;99.90;;;;;;5051037;28;20175;-65
2022/01/23 00:58:35;;;;;;;58.47;29.83;;;5.50;99.90;;;;;;5032276;28;20236;-65
2022/01/23 01:01:00;;;;;;;56.43;31.00;;;5.50;99.90;;;;;;5031097;28;20188;-64
2022/01/23 01:03:26;;;;;;;52.47;30.20;;;5.50;99.90;;;;;;5047130;28;20770;-65
2022/01/23 01:05:52;;;;;;;61.83;32.20;;;5.50;99.90;;;;;;5051040;28;20178;-66
2022/01/23 01:08:18;;;;;;;51.47;27.80;;;5.50;99.90;;;;;;5036317;28;20200;-65
2022/01/23 01:11:02;;;;;;;58.40;30.70;;;5.60;99.90;;;;;;5031022;28;20176;-64
2022/01/23 01:13:41;;;;;;;55.43;30.47;;;5.50;99.90;;;;;;5046476;28;20210;-66
2022/01/23 01:16:39;;;;;;;63.33;31.87;;;5.50;99.90;;;;;;5051010;28;20163;-65
2022/01/23 01:35:19;;;;;;;55.87;30.87;;;5.50;99.90;;;;;;5042005;28;20274;-65
2022/01/23 01:37:44;;;;;;;47.00;28.17;;;5.50;99.90;;;;;;5034446;28;20195;-65
2022/01/23 01:40:10;;;;;;;53.87;29.60;;;5.40;99.90;;;;;;5042560;28;20723;-66
2022/01/23 01:42:36;;;;;;;60.17;31.70;;;5.40;99.90;;;;;;5037924;28;20186;-65
2022/01/23 01:45:02;;;;;;;52.87;30.67;;;5.30;99.90;;;;;;5034280;28;20180;-65
2022/01/23 01:47:27;;;;;;;51.00;29.83;;;5.30;99.90;;;;;;5043245;28;20195;-65
2022/01/23 01:49:53;;;;;;;60.97;32.00;;;5.40;99.90;;;;;;5054122;28;20178;-67
2022/01/23 01:52:19;;;;;;;58.40;32.40;;;5.30;99.90;;;;;;5046127;28;20568;-64
2022/01/23 01:54:47;;;;;;;57.23;30.47;;;5.40;99.90;;;;;;5034272;28;20176;-65
2022/01/23 01:57:14;;;;;;;57.60;31.03;;;5.40;99.90;;;;;;5040100;28;20679;-65
2022/01/23 02:10:33;;;;;;;51.90;29.93;;;5.50;99.90;;;;;;5053720;28;20248;-65
2022/01/23 02:13:10;;;;;;;57.17;30.10;;;5.40;99.90;;;;;;5043202;28;20206;-64
2022/01/23 02:51:27;;;;;;;60.87;29.23;;;5.40;99.90;;;;;;5053390;28;20555;-65
2022/01/23 02:54:19;;;;;;;56.67;29.83;;;5.40;99.90;;;;;;5042996;28;20203;-66
2022/01/23 02:56:50;;;;;;;54.20;27.83;;;5.40;99.90;;;;;;5032867;28;20329;-66
2022/01/23 02:59:25;;;;;;;58.83;30.77;;;5.50;99.90;;;;;;5044875;28;20175;-66
2022/01/23 03:04:47;;;;;;;55.47;30.00;;;5.40;99.90;;;;;;5038133;28;20687;-65
2022/01/23 03:15:14;;;;;;;51.70;28.03;;;5.50;99.90;;;;;;5035052;28;20183;-65
2022/01/23 03:31:22;;;;;;;60.07;31.73;;;5.30;99.90;;;;;;5032742;28;20179;-65
2022/01/23 03:33:48;;;;;;;55.17;28.27;;;5.30;99.90;;;;;;5031824;28;20222;-65
2022/01/23 03:36:14;;;;;;;52.17;29.20;;;5.30;99.90;;;;;;5033329;28;20187;-65
2022/01/23 03:38:41;;;;;;;64.47;31.00;;;5.30;99.90;;;;;;5052332;28;20171;-65
2022/01/23 03:41:06;;;;;;;60.97;28.73;;;5.40;99.90;;;;;;5051806;28;20585;-65
2022/01/23 03:43:35;;;;;;;56.03;30.03;;;5.40;99.90;;;;;;5032006;28;20180;-66
2022/01/23 03:51:12;;;;;;;57.37;30.07;;;5.40;99.90;;;;;;5031735;28;20237;-65
2022/01/23 03:53:39;;;;;;;55.37;28.37;;;5.30;99.90;;;;;;5031898;28;20208;-65
2022/01/23 03:56:05;;;;;;;59.37;29.27;;;5.30;99.90;;;;;;5032152;28;20172;-66
2022/01/23 03:58:31;;;;;;;55.10;29.03;;;5.30;99.90;;;;;;5049596;28;20174;-66
2022/01/23 04:00:57;;;;;;;69.73;31.47;;;5.20;99.90;;;;;;5051761;28;20171;-65
2022/01/23 04:03:23;;;;;;;56.80;27.90;;;5.20;99.90;;;;;;5034774;28;20645;-66
2022/01/23 04:05:50;;;;;;;55.40;27.97;;;5.30;99.90;;;;;;5044629;28;20190;-65
2022/01/23 04:08:17;;;;;;;62.37;29.43;;;5.30;99.90;;;;;;5052153;28;20249;-66
2022/01/23 04:10:43;;;;;;;61.97;29.37;;;5.30;99.90;;;;;;5039686;28;20634;-67
2022/01/23 04:13:19;;;;;;;61.20;29.67;;;5.30;99.90;;;;;;5030700;28;20203;-66
2022/01/23 04:19:03;;;;;;;56.10;29.63;;;5.40;99.90;;;;;;5051860;28;20567;-66
2022/01/23 04:32:19;;;;;;;55.17;29.67;;;5.40;99.90;;;;;;5031802;28;20186;-64
2022/01/23 04:35:15;;;;;;;53.00;28.67;;;5.40;99.90;;;;;;5051392;28;20194;-66
2022/01/23 04:46:02;;;;;;;58.47;29.13;;;5.60;99.90;;;;;;5051543;28;20182;-65
2022/01/23 04:59:45;;;;;;;60.03;30.90;;;5.50;99.90;;;;;;5037799;28;20233;-65
2022/01/23 05:04:42;;;;;;;52.03;28.03;;;5.40;99.90;;;;;;5037188;28;20629;-66
2022/01/23 05:07:10;;;;;;;56.47;28.17;;;5.40;99.90;;;;;;5048863;28;20276;-65
2022/01/23 05:09:37;;;;;;;60.73;33.10;;;5.40;99.90;;;;;;5056514;28;20186;-65
2022/01/23 05:12:07;;;;;;;61.60;30.00;;;5.40;99.90;;;;;;5044501;28;20175;-66
2022/01/23 05:14:39;;;;;;;54.97;31.97;;;5.40;99.90;;;;;;5036274;28;20223;-65
2022/01/23 05:17:08;;;;;;;67.97;30.90;;;5.40;99.90;;;;;;5046926;28;20195;-67
2022/01/23 05:19:34;;;;;;;56.30;33.10;;;5.40;99.90;;;;;;5055852;28;20634;-66
2022/01/23 05:24:48;;;;;;;58.30;32.23;;;5.30;99.90;;;;;;5035967;28;20534;-67
2022/01/23 05:27:14;;;;;;;61.63;30.97;;;5.30;99.90;;;;;;5044957;28;20198;-67
2022/01/23 05:29:40;;;;;;;63.70;32.77;;;5.40;99.90;;;;;;5045877;28;20179;-67
2022/01/23 05:32:09;;;;;;;62.53;30.47;;;5.30;99.90;;;;;;5034745;28;20350;-66
2022/01/23 05:34:35;;;;;;;65.33;32.73;;;5.40;99.90;;;;;;5041475;28;20182;-67
2022/01/23 05:37:01;;;;;;;59.90;31.50;;;5.40;99.90;;;;;;5054318;28;20179;-67
2022/01/23 05:39:31;;;;;;;49.77;28.00;;;5.30;99.90;;;;;;5048739;28;20188;-66
2022/01/23 05:42:04;;;;;;;60.00;29.73;;;5.40;99.90;;;;;;5034236;28;20163;-67
2022/01/23 05:44:30;;;;;;;60.33;30.40;;;5.40;99.90;;;;;;5039385;28;20332;-65
2022/01/23 05:46:55;;;;;;;75.67;34.63;;;5.30;99.90;;;;;;5054293;28;20738;-67
2022/01/23 05:49:21;;;;;;;65.57;29.93;;;5.30;99.90;;;;;;5050489;28;20274;-67
2022/01/23 05:51:47;;;;;;;55.33;28.73;;;5.30;99.90;;;;;;5034265;28;20176;-67
2022/01/23 05:54:13;;;;;;;63.13;30.00;;;5.30;99.90;;;;;;5035912;28;20199;-67
2022/01/23 05:56:38;;;;;;;59.10;29.30;;;5.30;99.90;;;;;;5053435;28;20222;-67
2022/01/23 05:59:04;;;;;;;61.93;30.17;;;5.30;99.90;;;;;;5035053;28;20207;-66
2022/01/23 06:01:30;;;;;;;63.87;31.20;;;5.40;99.90;;;;;;5037632;28;20671;-67
2022/01/23 06:03:55;;;;;;;53.73;27.60;;;5.40;99.90;;;;;;5053791;28;20604;-66
2022/01/23 06:06:21;;;;;;;50.23;25.73;;;5.50;99.90;;;;;;5051614;28;20282;-66
2022/01/23 06:08:46;;;;;;;55.67;29.60;;;5.50;99.90;;;;;;5034017;28;20180;-65
2022/01/23 06:11:12;;;;;;;55.43;28.40;;;5.50;99.90;;;;;;5032624;28;20214;-65
2022/01/23 06:13:38;;;;;;;49.47;27.07;;;5.50;99.90;;;;;;5053285;28;20246;-67
2022/01/23 06:16:04;;;;;;;45.50;26.83;;;5.60;99.90;;;;;;5052482;28;20171;-67
2022/01/23 06:18:29;;;;;;;52.77;27.70;;;5.60;99.90;;;;;;5034820;28;20250;-66
2022/01/23 06:20:55;;;;;;;48.67;27.97;;;5.60;99.90;;;;;;5033815;28;20255;-67
2022/01/23 06:23:20;;;;;;;52.27;26.50;;;5.60;99.90;;;;;;5049893;28;20221;-66
2022/01/23 06:25:48;;;;;;;53.97;26.53;;;5.60;99.90;;;;;;5046600;28;20233;-66
2022/01/23 06:28:46;;;;;;;54.23;27.37;;;5.60;99.90;;;;;;5038383;28;20195;-66
2022/01/23 06:31:12;;;;;;;48.43;24.53;;;5.60;99.90;;;;;;5053476;28;20201;-66
2022/01/23 06:33:38;;;;;;;50.40;28.07;;;5.60;99.90;;;;;;5047717;28;20294;-66
2022/01/23 06:36:04;;;;;;;52.70;27.60;;;5.60;99.90;;;;;;5053530;28;20175;-66
2022/01/23 06:38:30;;;;;;;51.50;26.60;;;5.60;99.90;;;;;;5046969;28;20238;-66
2022/01/23 06:40:56;;;;;;;47.30;25.27;;;5.60;99.90;;;;;;5033470;28;20176;-66
2022/01/23 06:43:21;;;;;;;46.63;26.03;;;5.70;99.90;;;;;;5037255;28;20316;-64
2022/01/23 06:45:47;;;;;;;52.50;26.60;;;5.70;99.90;;;;;;5053166;28;20202;-67
2022/01/23 06:48:12;;;;;;;59.17;28.53;;;5.70;99.90;;;;;;5050144;28;20218;-66
2022/01/23 06:50:38;;;;;;;50.00;28.13;;;5.70;99.90;;;;;;5033206;28;20185;-66
2022/01/23 06:53:04;;;;;;;54.40;27.70;;;5.70;99.90;;;;;;5033387;28;20206;-65
2022/01/23 06:55:29;;;;;;;50.07;27.10;;;5.60;99.90;;;;;;5053061;28;20167;-66
2022/01/23 06:57:55;;;;;;;50.03;26.67;;;5.60;99.90;;;;;;5053059;28;20270;-66
2022/01/23 07:00:21;;;;;;;50.53;27.67;;;5.50;99.90;;;;;;5033809;28;21031;-65
2022/01/23 07:02:46;;;;;;;44.27;25.47;;;5.60;99.90;;;;;;5032683;28;20209;-66
2022/01/23 07:05:12;;;;;;;48.13;26.43;;;5.60;99.90;;;;;;5050113;28;20179;-65
2022/01/23 07:07:37;;;;;;;46.70;26.20;;;5.60;99.90;;;;;;5052957;28;20597;-66
2022/01/23 07:10:03;;;;;;;50.23;28.57;;;5.60;99.90;;;;;;5051305;28;20197;-66
2022/01/23 07:12:29;;;;;;;55.83;28.93;;;5.60;99.90;;;;;;5052498;28;20198;-66
2022/01/23 07:14:55;;;;;;;56.73;29.00;;;5.60;99.90;;;;;;5039224;28;20270;-65
2022/01/23 07:17:21;;;;;;;49.80;26.07;;;5.60;99.90;;;;;;5032639;28;20222;-64
2022/01/23 07:19:46;;;;;;;55.63;28.07;;;5.60;99.90;;;;;;5043205;28;20167;-66
2022/01/23 07:22:12;;;;;;;53.93;28.90;;;5.60;99.90;;;;;;5052604;28;20547;-66
2022/01/23 07:24:38;;;;;;;52.17;27.63;;;5.60;99.90;;;;;;5041280;28;20180;-66
2022/01/23 07:27:13;;;;;;;48.37;25.63;;;5.70;99.90;;;;;;5032864;28;20232;-66
2022/01/23 07:29:41;;;;;;;49.37;27.20;;;5.70;99.90;;;;;;5043391;28;20186;-66
2022/01/23 07:32:08;;;;;;;49.07;27.23;;;5.60;99.90;;;;;;5052454;28;20846;-67
2022/01/23 07:34:34;;;;;;;51.40;28.77;;;5.60;99.90;;;;;;5043580;28;20207;-66
2022/01/23 07:36:59;;;;;;;52.80;28.87;;;5.50;99.90;;;;;;5032587;28;20202;-66
2022/01/23 07:39:25;;;;;;;50.83;29.67;;;5.60;99.90;;;;;;5039506;28;20244;-65
2022/01/23 07:41:51;;;;;;;51.37;28.10;;;5.70;99.90;;;;;;5050890;28;20372;-66
2022/01/23 07:44:16;;;;;;;50.07;29.53;;;5.70;99.90;;;;;;5051120;28;20190;-67
2022/01/23 07:46:42;;;;;;;47.83;26.47;;;5.70;99.90;;;;;;5052219;28;20277;-66
2022/01/23 07:49:08;;;;;;;50.47;28.83;;;5.60;99.90;;;;;;5033863;28;20183;-68
2022/01/23 07:51:35;;;;;;;51.83;27.43;;;5.60;99.90;;;;;;5032919;28;20172;-66
2022/01/23 07:54:00;;;;;;;53.27;27.77;;;5.60;99.90;;;;;;5047389;28;20233;-67
2022/01/23 07:56:26;;;;;;;51.03;29.30;;;5.70;99.90;;;;;;5052714;28;20197;-67
2022/01/23 07:58:52;;;;;;;53.90;28.90;;;5.70;99.90;;;;;;5037987;28;20206;-66
2022/01/23 08:01:18;;;;;;;54.93;26.60;;;5.70;99.90;;;;;;5032305;28;20220;-66
2022/01/23 08:03:43;;;;;;;51.63;27.23;;;5.80;99.90;;;;;;5044855;28;20213;-66
2022/01/23 08:06:12;;;;;;;47.17;27.63;;;5.80;99.90;;;;;;5052127;28;20167;-67
2022/01/23 08:08:37;;;;;;;50.57;28.13;;;5.80;99.90;;;;;;5040648;28;20237;-67
2022/01/23 08:11:03;;;;;;;49.57;27.87;;;5.80;99.90;;;;;;5032069;28;20629;-67
2022/01/23 08:13:28;;;;;;;54.57;29.63;;;5.80;99.90;;;;;;5042642;28;20591;-66
2022/01/23 08:15:54;;;;;;;55.87;29.50;;;5.90;99.90;;;;;;5035448;28;20211;-66
2022/01/23 08:18:20;;;;;;;47.73;27.43;;;5.90;99.90;;;;;;5033756;28;20188;-67
2022/01/23 08:20:45;;;;;;;58.27;30.23;;;5.80;99.90;;;;;;5031077;28;20281;-67
2022/01/23 08:23:12;;;;;;;49.00;27.80;;;5.90;99.90;;;;;;5033080;28;20243;-66
2022/01/23 08:25:38;;;;;;;57.80;30.57;;;5.90;99.90;;;;;;5033571;28;20207;-66
2022/01/23 08:28:04;;;;;;;58.73;30.10;;;5.90;99.90;;;;;;5035968;28;20675;-67
2022/01/23 08:30:30;;;;;;;69.17;34.13;;;5.90;99.90;;;;;;5050916;28;20651;-67
2022/01/23 08:32:55;;;;;;;60.60;33.27;;;5.90;99.90;;;;;;5049941;28;20555;-66
2022/01/23 08:35:21;;;;;;;54.37;30.73;;;6.00;99.90;;;;;;5031867;28;20175;-66
2022/01/23 08:37:47;;;;;;;59.57;28.33;;;6.00;99.90;;;;;;5035012;28;20188;-65
2022/01/23 08:40:20;;;;;;;58.57;30.23;;;6.00;99.90;;;;;;5055936;28;20190;-67
2022/01/23 08:42:45;;;;;;;54.47;29.07;;;6.00;99.90;;;;;;5055412;28;20175;-67
2022/01/23 08:45:11;;;;;;;59.13;30.23;;;6.10;99.90;;;;;;5036019;28;20194;-66
2022/01/23 08:47:37;;;;;;;50.27;27.97;;;6.20;99.90;;;;;;5035549;28;20237;-67
2022/01/23 08:50:04;;;;;;;56.27;28.43;;;6.20;99.90;;;;;;5053733;28;20182;-65
2022/01/23 08:52:30;;;;;;;52.60;28.33;;;6.20;99.90;;;;;;5054732;28;20253;-66
2022/01/23 08:54:56;;;;;;;50.60;28.03;;;6.30;99.90;;;;;;5038320;28;20291;-66
2022/01/23 08:57:22;;;;;;;49.57;26.77;;;6.30;99.90;;;;;;5033933;28;20240;-66
2022/01/23 08:59:48;;;;;;;56.67;30.30;;;6.30;99.90;;;;;;5050596;28;20178;-67
2022/01/23 09:02:14;;;;;;;49.63;28.30;;;6.30;99.90;;;;;;5055268;28;20221;-66
2022/01/23 09:04:40;;;;;;;53.73;30.47;;;6.30;99.90;;;;;;5041802;28;20218;-67
2022/01/23 09:07:06;;;;;;;50.27;27.73;;;6.40;99.90;;;;;;5035177;28;20250;-67
2022/01/23 09:09:37;;;;;;;47.73;27.33;;;6.40;99.90;;;;;;5046824;28;20605;-66
2022/01/23 09:12:07;;;;;;;46.00;27.10;;;6.40;99.90;;;;;;5055945;28;20205;-66
2022/01/23 09:14:33;;;;;;;49.80;28.33;;;6.40;99.90;;;;;;5053623;28;20566;-67
2022/01/23 09:17:00;;;;;;;46.67;27.23;;;6.40;99.90;;;;;;5054213;28;20198;-67
2022/01/23 09:19:29;;;;;;;51.30;27.50;;;6.40;99.90;;;;;;5046794;28;20228;-67
2022/01/23 09:21:55;;;;;;;51.30;30.97;;;6.40;99.90;;;;;;5044462;28;20183;-67
2022/01/23 09:24:23;;;;;;;52.57;30.43;;;6.50;99.90;;;;;;5056311;28;20175;-66
2022/01/23 09:26:53;;;;;;;53.00;30.73;;;6.50;99.90;;;;;;5050508;28;20565;-67
2022/01/23 09:29:31;;;;;;;51.30;29.50;;;6.50;99.90;;;;;;5052070;28;20175;-68
2022/01/23 09:31:57;;;;;;;47.80;27.93;;;6.50;99.90;;;;;;5049185;28;20189;-64
2022/01/23 09:34:26;;;;;;;49.80;29.73;;;6.60;99.90;;;;;;5051604;28;20198;-68
2022/01/23 09:36:55;;;;;;;51.13;29.97;;;6.60;99.90;;;;;;5049908;28;20215;-65
2022/01/23 09:39:21;;;;;;;44.27;28.47;;;6.60;99.90;;;;;;5035211;28;20168;-65
2022/01/23 09:42:00;;;;;;;46.37;28.70;;;6.50;99.90;;;;;;5036032;28;20267;-67
2022/01/23 09:44:29;;;;;;;47.23;28.30;;;6.40;99.90;;;;;;5031443;28;20516;-65
2022/01/23 09:46:57;;;;;;;52.10;29.33;;;6.40;99.90;;;;;;5045842;28;20237;-67
2022/01/23 09:49:25;;;;;;;46.97;27.23;;;6.30;99.90;;;;;;5057211;28;20182;-67
2022/01/23 09:51:54;;;;;;;47.23;27.53;;;6.30;99.90;;;;;;5054059;28;20347;-65
2022/01/23 09:54:21;;;;;;;43.87;26.73;;;6.40;99.90;;;;;;5054362;28;20617;-67
2022/01/23 09:56:47;;;;;;;47.03;27.57;;;6.30;99.90;;;;;;5053324;28;20191;-67
2022/01/23 09:59:14;;;;;;;50.43;28.10;;;6.30;99.90;;;;;;5032624;28;20180;-66
2022/01/23 10:01:41;;;;;;;49.07;27.53;;;6.30;99.90;;;;;;5034645;28;20179;-67
2022/01/23 10:04:08;;;;;;;50.70;27.57;;;6.40;99.90;;;;;;5035336;28;20672;-66
2022/01/23 10:09:06;;;;;;;47.77;26.67;;;6.60;99.90;;;;;;5052217;28;20211;-64
2022/01/23 10:11:36;;;;;;;50.23;26.53;;;6.70;99.90;;;;;;5053200;28;20174;-65
2022/01/23 10:14:02;;;;;;;43.07;25.00;;;6.60;99.90;;;;;;5053283;28;20218;-65
2022/01/23 10:16:29;;;;;;;38.53;25.40;;;6.60;99.90;;;;;;5049985;28;20179;-65
2022/01/23 10:18:56;;;;;;;44.47;24.63;;;6.60;99.90;;;;;;5031752;28;20229;-64
2022/01/23 10:21:22;;;;;;;49.13;30.03;;;6.50;99.90;;;;;;5033144;28;20187;-63
2022/01/23 10:23:48;;;;;;;52.63;30.47;;;6.50;99.90;;;;;;5032068;28;20176;-65
2022/01/23 10:26:37;;;;;;;48.70;28.67;;;6.70;99.90;;;;;;5031557;28;20187;-64
2022/01/23 10:29:17;;;;;;;49.33;29.10;;;6.60;99.90;;;;;;5033208;28;20190;-65
2022/01/23 10:32:02;;;;;;;40.70;26.10;;;6.80;99.90;;;;;;5033238;28;20644;-65
2022/01/23 10:34:50;;;;;;;42.00;25.90;;;6.90;99.90;;;;;;5032870;28;20214;-65
2022/01/23 10:37:34;;;;;;;39.90;28.13;;;7.00;99.90;;;;;;5033325;28;20183;-64
2022/01/23 10:40:09;;;;;;;39.53;25.53;;;7.10;99.90;;;;;;5033049;28;20532;-64
2022/01/23 10:48:13;;;;;;;42.83;25.30;;;7.50;99.90;;;;;;5032526;28;20209;-64
2022/01/23 10:50:38;;;;;;;38.17;25.07;;;7.50;99.90;;;;;;5032867;28;20544;-65
2022/01/23 10:53:04;;;;;;;45.23;25.13;;;7.50;99.90;;;;;;5032242;28;20290;-65
2022/01/23 10:55:34;;;;;;;35.67;23.50;;;7.60;99.90;;;;;;5032825;28;20249;-65
2022/01/23 10:58:03;;;;;;;38.73;25.37;;;7.60;99.90;;;;;;5032892;28;20222;-64
2022/01/23 11:00:39;;;;;;;41.00;27.03;;;7.60;99.90;;;;;;5031049;28;20214;-64
2022/01/23 11:03:13;;;;;;;38.27;26.63;;;7.70;99.90;;;;;;5031391;28;20195;-64
2022/01/23 11:05:40;;;;;;;40.20;25.43;;;7.70;99.90;;;;;;5012636;28;20708;-64
2022/01/23 11:08:31;;;;;;;37.67;24.13;;;7.80;99.90;;;;;;5012553;28;20208;-65
2022/01/23 11:11:00;;;;;;;40.67;24.57;;;7.90;99.90;;;;;;5013104;28;20183;-63
2022/01/23 11:19:23;;;;;;;44.27;25.20;;;7.80;99.90;;;;;;5031972;28;20194;-64
2022/01/23 11:21:52;;;;;;;36.10;23.17;;;7.70;99.90;;;;;;5032208;28;20174;-65
2022/01/23 11:24:18;;;;;;;41.90;24.97;;;7.60;99.90;;;;;;5031930;28;20278;-65
2022/01/23 11:26:44;;;;;;;40.20;25.60;;;7.50;99.90;;;;;;5031869;28;20672;-65
2022/01/23 11:29:12;;;;;;;41.17;25.07;;;7.50;99.90;;;;;;5032453;28;20183;-63
2022/01/23 11:31:39;;;;;;;37.80;27.17;;;7.50;99.90;;;;;;5031897;28;20167;-63
2022/01/23 11:34:06;;;;;;;43.23;26.20;;;7.50;99.90;;;;;;5012201;28;20238;-65
2022/01/23 11:36:33;;;;;;;40.17;24.80;;;7.60;99.90;;;;;;5012144;28;20184;-65
2022/01/23 11:39:11;;;;;;;40.00;26.33;;;7.70;99.90;;;;;;5031006;28;20176;-65
2022/01/23 11:53:47;;;;;;;38.60;24.13;;;7.80;99.90;;;;;;5030934;28;20584;-65
2022/01/23 11:56:25;;;;;;;36.77;24.67;;;7.90;99.90;;;;;;5029672;28;20175;-65
2022/01/23 11:58:54;;;;;;;41.57;25.23;;;7.90;99.90;;;;;;5031838;28;20175;-64
2022/01/23 12:01:24;;;;;;;44.67;27.13;;;7.90;99.90;;;;;;5031664;28;20175;-66
2022/01/23 12:04:28;;;;;;;40.20;27.03;;;8.00;99.90;;;;;;5031581;28;20226;-65
2022/01/23 12:07:12;;;;;;;40.37;25.37;;;8.00;99.90;;;;;;5031327;28;20656;-65
2022/01/23 12:10:08;;;;;;;38.77;26.63;;;8.00;99.90;;;;;;5029944;28;20289;-63
2022/01/23 12:12:40;;;;;;;44.23;26.20;;;8.00;99.90;;;;;;5028063;28;20210;-64
2022/01/23 12:18:20;;;;;;;46.27;25.80;;;8.00;99.90;;;;;;5031837;28;20252;-65
2022/01/23 12:20:49;;;;;;;39.00;25.93;;;8.00;99.90;;;;;;5031079;28;20183;-65
2022/01/23 12:23:15;;;;;;;44.53;27.93;;;8.00;99.90;;;;;;5030847;28;20184;-64
2022/01/23 12:25:44;;;;;;;46.37;27.77;;;8.00;99.90;;;;;;5030929;28;20191;-65
2022/01/23 12:28:17;;;;;;;36.67;24.47;;;8.10;99.90;;;;;;5047181;28;20281;-65
2022/01/23 12:30:46;;;;;;;40.23;25.17;;;8.10;99.90;;;;;;5047452;28;20179;-65
2022/01/23 12:33:16;;;;;;;40.97;25.43;;;8.00;99.90;;;;;;5031055;28;20505;-65
2022/01/23 12:35:45;;;;;;;40.47;24.13;;;8.00;99.90;;;;;;5031172;28;20206;-65
2022/01/23 12:38:13;;;;;;;38.57;25.93;;;7.90;99.90;;;;;;5031411;28;20259;-65
2022/01/23 12:40:43;;;;;;;35.53;25.20;;;7.90;99.90;;;;;;5031397;28;20641;-66
2022/01/23 12:43:21;;;;;;;36.40;23.07;;;7.90;99.90;;;;;;5031015;28;20178;-65
2022/01/23 12:45:57;;;;;;;35.80;23.53;;;7.90;99.90;;;;;;5029858;28;20509;-65
2022/01/23 12:48:26;;;;;;;36.20;22.87;;;8.00;99.90;;;;;;5011720;28;20677;-65
2022/01/23 12:51:07;;;;;;;35.10;24.17;;;8.00;99.90;;;;;;5029313;28;20179;-65
2022/01/23 12:53:47;;;;;;;37.67;24.13;;;8.00;99.90;;;;;;5030479;28;20665;-65
2022/01/23 12:56:32;;;;;;;39.70;23.67;;;8.10;99.90;;;;;;5031155;28;20168;-65
2022/01/23 12:59:07;;;;;;;35.27;22.57;;;8.10;99.90;;;;;;5029714;28;20659;-65
2022/01/23 13:01:33;;;;;;;31.50;22.07;;;8.10;99.90;;;;;;5030874;28;20183;-64
2022/01/23 13:04:02;;;;;;;32.83;21.67;;;8.20;99.90;;;;;;5030608;28;20537;-65
2022/01/23 13:07:01;;;;;;;31.23;22.50;;;8.20;99.90;;;;;;5030844;28;20184;-65
2022/01/23 13:09:52;;;;;;;32.67;23.37;;;8.20;99.90;;;;;;5030550;28;20187;-64
2022/01/23 13:30:54;;;;;;;35.53;22.60;;;8.10;99.90;;;;;;5034357;28;20751;-65
2022/01/23 13:33:22;;;;;;;35.53;23.43;;;8.10;99.90;;;;;;5031648;28;20217;-64
2022/01/23 13:35:53;;;;;;;34.93;22.20;;;8.20;99.90;;;;;;5032544;28;20184;-64
2022/01/23 13:38:21;;;;;;;31.90;22.30;;;8.30;99.90;;;;;;5033724;28;20551;-65
2022/01/23 13:40:57;;;;;;;31.43;22.30;;;8.20;99.90;;;;;;5038841;28;20183;-65
2022/01/23 14:02:17;;;;;;;31.17;23.07;;;8.10;99.90;;;;;;5014135;28;20176;-64
2022/01/23 14:05:04;;;;;;;29.67;21.27;;;8.00;99.90;;;;;;5016202;28;20172;-64
2022/01/23 14:07:30;;;;;;;31.97;23.77;;;7.90;99.90;;;;;;5033183;28;20215;-64
2022/01/23 14:09:59;;;;;;;36.73;23.73;;;7.80;99.90;;;;;;5033361;28;20184;-64
2022/01/23 14:12:26;;;;;;;39.93;24.30;;;7.70;99.90;;;;;;5032874;28;20188;-63
2022/01/23 14:15:03;;;;;;;33.13;23.23;;;7.70;99.90;;;;;;5033060;28;20179;-65
2022/01/23 14:17:28;;;;;;;37.97;24.27;;;7.70;99.90;;;;;;5031388;28;20195;-64
2022/01/23 14:20:00;;;;;;;34.77;23.20;;;7.80;99.90;;;;;;5033055;28;20167;-65
2022/01/23 14:22:27;;;;;;;35.60;23.93;;;7.80;99.90;;;;;;5030810;28;20191;-65
2022/01/23 14:25:12;;;;;;;36.73;24.03;;;7.90;99.90;;;;;;5023989;28;20636;-64
2022/01/23 14:27:40;;;;;;;39.10;24.70;;;7.90;99.90;;;;;;5032855;28;20292;-64
2022/01/23 14:30:20;;;;;;;36.83;23.77;;;8.00;99.90;;;;;;5033521;28;20168;-64
2022/01/23 14:32:51;;;;;;;46.27;26.63;;;8.10;99.90;;;;;;5032858;28;20179;-64
2022/01/23 14:35:26;;;;;;;39.80;24.53;;;8.10;99.90;;;;;;5013514;28;20176;-64
2022/01/23 14:37:53;;;;;;;37.50;25.40;;;8.00;99.90;;;;;;5013555;28;20191;-65
2022/01/23 14:40:27;;;;;;;39.47;23.93;;;8.00;99.90;;;;;;5033352;28;20598;-65
2022/01/23 14:43:04;;;;;;;35.03;22.10;;;7.90;99.90;;;;;;5032163;28;20182;-65
2022/01/23 14:45:40;;;;;;;33.83;24.07;;;7.80;99.90;;;;;;5031726;28;20187;-65
2022/01/23 14:48:08;;;;;;;40.50;23.93;;;7.80;99.90;;;;;;5032709;28;20691;-64
2022/01/23 14:50:37;;;;;;;37.00;22.73;;;7.70;99.90;;;;;;5032930;28;20563;-64
2022/01/23 14:53:09;;;;;;;37.40;23.53;;;7.60;99.90;;;;;;5032566;28;20207;-64
2022/01/23 14:55:35;;;;;;;33.23;21.30;;;7.60;99.90;;;;;;5032473;28;20170;-65
2022/01/23 14:58:02;;;;;;;35.67;22.33;;;7.60;99.90;;;;;;5032437;28;20206;-62
2022/01/23 15:00:32;;;;;;;33.53;23.27;;;7.60;99.90;;;;;;5032790;28;20195;-65
2022/01/23 15:03:02;;;;;;;33.87;22.73;;;7.50;99.90;;;;;;5031727;28;20268;-64
2022/01/23 15:05:37;;;;;;;35.30;22.73;;;7.50;99.90;;;;;;5031216;28;20179;-64
2022/01/23 15:08:07;;;;;;;32.93;22.67;;;7.50;99.90;;;;;;5032289;28;20767;-64
2022/01/23 15:10:33;;;;;;;32.57;22.33;;;7.50;99.90;;;;;;5030866;28;20179;-64
2022/01/23 15:12:58;;;;;;;35.00;22.30;;;7.50;99.90;;;;;;5032223;28;20209;-65
2022/01/23 15:15:25;;;;;;;33.40;22.57;;;7.50;99.90;;;;;;5032206;28;20548;-66
2022/01/23 15:17:51;;;;;;;34.73;23.23;;;7.60;99.90;;;;;;5031109;28;20290;-64
2022/01/23 15:20:17;;;;;;;35.23;23.73;;;7.70;99.90;;;;;;5032272;28;20189;-64
2022/01/23 15:22:43;;;;;;;33.33;22.67;;;7.70;99.90;;;;;;5032043;28;20168;-65
2022/01/23 15:25:11;;;;;;;35.17;23.70;;;7.70;99.90;;;;;;5031058;28;20589;-65
2022/01/23 15:27:37;;;;;;;30.30;22.70;;;7.70;99.90;;;;;;5032030;28;20183;-65
2022/01/23 15:30:10;;;;;;;36.30;23.47;;;7.70;99.90;;;;;;5032081;28;20576;-64
2022/01/23 15:32:36;;;;;;;28.20;22.23;;;7.70;99.90;;;;;;5031824;28;20438;-64
2022/01/23 15:35:03;;;;;;;34.73;23.10;;;7.70;99.90;;;;;;5032094;28;20591;-65
2022/01/23 15:37:29;;;;;;;33.80;21.90;;;7.60;99.90;;;;;;5031623;28;20278;-65
2022/01/23 15:39:55;;;;;;;31.83;22.43;;;7.70;99.90;;;;;;5031833;28;20318;-65
2022/01/23 15:42:20;;;;;;;32.40;22.13;;;7.60;99.90;;;;;;5031825;28;20168;-65
2022/01/23 15:44:46;;;;;;;39.60;23.07;;;7.50;99.90;;;;;;5031441;28;20625;-65
2022/01/23 15:47:12;;;;;;;34.43;22.50;;;7.40;99.90;;;;;;5031537;28;20560;-65
2022/01/23 15:49:37;;;;;;;37.57;23.43;;;7.30;99.90;;;;;;5031345;28;20763;-64
2022/01/23 15:52:04;;;;;;;35.60;21.17;;;7.30;99.90;;;;;;5031864;28;20253;-64
2022/01/23 15:54:29;;;;;;;35.00;22.27;;;7.20;99.90;;;;;;5029235;28;20203;-64
2022/01/23 15:56:56;;;;;;;36.10;23.27;;;7.20;99.90;;;;;;5031780;28;20374;-65
2022/01/23 15:59:22;;;;;;;33.73;22.03;;;7.10;99.90;;;;;;5031177;28;20168;-64
2022/01/23 16:01:49;;;;;;;33.07;22.53;;;6.90;99.90;;;;;;5031891;28;20176;-65
2022/01/23 16:04:17;;;;;;;32.17;23.20;;;6.80;99.90;;;;;;5030300;28;20183;-65
2022/01/23 16:06:44;;;;;;;38.17;22.93;;;6.80;99.90;;;;;;5031385;28;20205;-65
2022/01/23 16:09:09;;;;;;;41.30;22.97;;;6.90;99.90;;;;;;5032004;28;20183;-64
2022/01/23 16:11:35;;;;;;;31.23;21.13;;;7.00;99.90;;;;;;5031149;28;20282;-64
2022/01/23 16:14:01;;;;;;;31.57;21.33;;;6.90;99.90;;;;;;5030910;28;20569;-64
2022/01/23 16:16:26;;;;;;;40.47;22.77;;;6.90;99.90;;;;;;5029873;28;20640;-64
2022/01/23 16:18:52;;;;;;;33.87;21.87;;;6.90;99.90;;;;;;5031420;28;20183;-65
2022/01/23 16:21:19;;;;;;;34.30;23.30;;;6.90;99.90;;;;;;5031373;28;20645;-64